Airfield :
LOGIN :

Register | Disclaimer

   EN    FR    IT 

 










Legend :    VFR   Marginal VFR   IFR   Intensive IFR   Very Intensive IFR
Visi :
Ceiling :
>= 8 km
>= 3000ft
5 to 8 km
1000 to 3000 ft
1500m to 5 km
500 to 1000 ft
800 to 1500m
200 to 500 ft
< 800m
< 200 ft
Symbols :   Thunderstorms  Fog  Heavy snow  Heavy precipitations  Wind > 20 kt
SIGMETs :     Misc.  Thunderstorms  Icing  Turbulence  Mountain Waves  Volcanic Ashes







- Airport Elevation : 83 ft
- IATA code : LHR
- Download approach charts


EGLL - London Heathrow

CURRENT METAR :
  • 260850Z AUTO 25014KT 9999 FEW027 BKN031 11/05 Q1017

EXPIRED METARs :
  • 260820Z AUTO 25013G24KT 9999 SCT024 BKN030 BKN036 10/05 Q1017
  • 260750Z AUTO 25013KT 220V290 9999 SCT022 BKN029 10/05 Q1017 NOSIG
  • 260720Z AUTO 25012KT 9999 NCD 09/06 Q1016
  • 260650Z AUTO 24011KT 9999 NCD 09/05 Q1016 NOSIG
  • 260620Z AUTO 24011KT 9999 NCD 08/05 Q1016

TAF TAF EGLL
Valid from the 26 at 06:00 until the 27 at 12:00 UTC


260452Z 2606/2712 25012KT 9999 FEW045
PROB40
TEMPO 2610/2616 26015G25KT
BECMG 2623/2702 17008KT
PROB40
TEMPO 2706/2712 7000 RA
No reported NOTAMs for that airfield.



MET'MAP, your aeronautical weather chart ! - Copyright ORBIFLY December 2007 - Disclaimer

ORBIFLY MET'MAP TEAM :

Programming & Development : Alexandra Zaïnal
Concept & Development : Baudouin d'Aumeries
Co-Development & Prog : Marc-Olivier Méhu
Technical & hardware support : Manuel Goepfert

Contact : metmap@orbifly.com




SOURCES & CREDITS :

   NOAA